Time;durP1;ratioP1;P1;durP2;ratioP2;P2;SDS_P1;SDS_P2;PMS_P1;PMS_P2;Temp;Humidity;BMP_temperature;BMP_pressure;BME280_temperature;BME280_humidity;BME280_pressure;Samples;Min_cycle;Max_cycle;Signal;HPM_P1;HPM_P2
2023/11/04 00:02:09;;;;;;;44.30;28.10;;;;;;;12.22;100.00;100283.23;105691;1257;62516;-78
2023/11/04 00:04:39;;;;;;;49.00;28.60;;;;;;;12.24;100.00;100272.27;105796;1257;71473;-79
2023/11/04 00:07:06;;;;;;;55.00;29.50;;;;;;;12.25;100.00;100263.45;105866;1254;60427;-76
2023/11/04 00:09:33;;;;;;;49.70;29.90;;;;;;;12.26;100.00;100257.24;105677;1253;60413;-77
2023/11/04 00:12:16;;;;;;;46.00;27.10;;;;;;;12.26;100.00;100249.50;105820;1253;73053;-76
2023/11/04 00:14:43;;;;;;;46.50;28.60;;;;;;;12.27;100.00;100241.43;105776;1258;63706;-76
2023/11/04 00:17:11;;;;;;;47.00;26.50;;;;;;;12.26;100.00;100236.25;105832;1253;72571;-79
2023/11/04 00:19:38;;;;;;;43.80;26.50;;;;;;;12.26;100.00;100238.13;105901;1257;61963;-77
2023/11/04 00:22:05;;;;;;;47.60;28.20;;;;;;;12.26;100.00;100234.09;105791;1253;60197;-80
2023/11/04 00:24:33;;;;;;;47.30;27.60;;;;;;;12.27;100.00;100234.23;105753;1254;73049;-77
2023/11/04 00:27:00;;;;;;;48.20;29.00;;;;;;;12.27;100.00;100234.54;105773;1256;63587;-76
2023/11/04 00:29:28;;;;;;;46.90;27.70;;;;;;;12.28;100.00;100234.84;105904;1253;72791;-77
2023/11/04 00:31:55;;;;;;;51.70;30.10;;;;;;;12.28;100.00;100229.20;105660;1257;62029;-78
2023/11/04 00:34:23;;;;;;;43.20;27.20;;;;;;;12.28;100.00;100219.57;105814;1253;60419;-74
2023/11/04 00:36:50;;;;;;;46.70;28.00;;;;;;;12.29;100.00;100221.95;105801;1257;72833;-76
2023/11/04 00:39:17;;;;;;;48.80;29.10;;;;;;;12.29;100.00;100215.70;105601;1257;63976;-77
2023/11/04 00:41:46;;;;;;;47.10;27.60;;;;;;;12.28;100.00;100219.21;105773;1253;72555;-76
2023/11/04 00:44:13;;;;;;;46.40;28.00;;;;;;;12.28;100.00;100220.09;105691;1259;60506;-76
2023/11/04 00:46:41;;;;;;;48.30;27.20;;;;;;;12.28;100.00;100219.90;105910;1253;60544;-78
2023/11/04 00:49:08;;;;;;;48.80;29.20;;;;;;;12.29;100.00;100228.27;105694;1253;73834;-77
2023/11/04 00:51:36;;;;;;;45.30;27.50;;;;;;;12.30;100.00;100236.80;105752;1257;63673;-78
2023/11/04 00:54:04;;;;;;;52.80;29.90;;;;;;;12.31;100.00;100237.23;105794;1253;72746;-76
2023/11/04 00:56:33;;;;;;;45.10;28.00;;;;;;;12.32;100.00;100231.20;105714;1258;62003;-76
2023/11/04 00:59:00;;;;;;;45.30;27.10;;;;;;;12.34;100.00;100239.83;105723;1257;60490;-74
2023/11/04 01:01:27;;;;;;;48.60;27.90;;;;;;;12.34;100.00;100239.46;105678;1253;73829;-76
2023/11/04 01:03:55;;;;;;;52.00;30.00;;;;;;;12.35;100.00;100244.64;105792;1258;63997;-77
2023/11/04 01:06:22;;;;;;;50.30;29.10;;;;;;;12.36;100.00;100250.00;105796;1252;72817;-78
2023/11/04 01:08:49;;;;;;;51.50;28.80;;;;;;;12.37;100.00;100254.84;105676;1259;62020;-78
2023/11/04 01:11:19;;;;;;;51.10;29.30;;;;;;;12.38;100.00;100250.91;105689;1253;60440;-78
2023/11/04 01:13:46;;;;;;;51.90;28.90;;;;;;;12.37;100.00;100236.80;105801;1257;73631;-79
2023/11/04 01:19:03;;;;;;;48.20;29.80;;;;;;;12.39;100.00;100229.82;103046;1286;601925;-79
2023/11/04 01:21:31;;;;;;;51.40;28.50;;;;;;;12.37;100.00;100226.46;105257;1263;61935;-79
2023/11/04 01:23:58;;;;;;;55.30;31.70;;;;;;;12.36;100.00;100219.98;105050;1268;59279;-78
2023/11/04 01:26:25;;;;;;;49.20;30.40;;;;;;;12.36;100.00;100224.56;105017;1266;72216;-79
2023/11/04 01:28:52;;;;;;;57.20;31.30;;;;;;;12.36;100.00;100225.45;105190;1266;63821;-79
2023/11/04 01:31:20;;;;;;;51.50;29.50;;;;;;;12.36;100.00;100230.54;105490;1260;222313;-76
2023/11/04 01:33:47;;;;;;;52.30;31.60;;;;;;;12.36;100.00;100225.10;105710;1257;61924;-76
2023/11/04 01:36:14;;;;;;;51.90;29.10;;;;;;;12.37;100.00;100225.05;105722;1254;60223;-78
2023/11/04 01:38:41;;;;;;;51.50;28.90;;;;;;;12.37;100.00;100231.51;105798;1257;72356;-79
2023/11/04 01:41:08;;;;;;;44.00;26.20;;;;;;;12.38;100.00;100231.63;105630;1257;64037;-78
2023/11/04 01:43:35;;;;;;;52.70;29.70;;;;;;;12.39;100.00;100225.09;105830;1254;71549;-79
2023/11/04 01:46:09;;;;;;;52.30;30.40;;;;;;;12.39;100.00;100220.89;105567;1260;61992;-77
2023/11/04 01:48:36;;;;;;;55.60;30.80;;;;;;;12.38;100.00;100217.77;105614;1259;59656;-77
2023/11/04 01:51:04;;;;;;;46.50;28.30;;;;;;;12.38;100.00;100216.53;105603;1260;73079;-79
2023/11/04 01:53:32;;;;;;;48.90;28.00;;;;;;;12.38;100.00;100218.31;105604;1260;62295;-77
2023/11/04 01:56:07;;;;;;;47.00;27.50;;;;;;;12.38;100.00;100220.73;105659;1254;71654;-76
2023/11/04 01:58:34;;;;;;;48.80;29.70;;;;;;;12.39;100.00;100221.21;105651;1260;60615;-77
2023/11/04 02:01:02;;;;;;;53.40;29.40;;;;;;;12.39;100.00;100228.05;105544;1254;60276;-78
2023/11/04 02:03:29;;;;;;;46.00;27.10;;;;;;;12.39;100.00;100223.30;105526;1260;72870;-77
2023/11/04 02:05:55;;;;;;;53.20;29.70;;;;;;;12.39;100.00;100216.82;105752;1257;62781;-77
2023/11/04 02:08:22;;;;;;;50.90;29.80;;;;;;;12.40;100.00;100211.87;105938;1254;72720;-78
2023/11/04 02:10:49;;;;;;;43.50;28.10;;;;;;;12.40;100.00;100213.93;106148;1254;60453;-77
2023/11/04 02:13:16;;;;;;;47.40;29.10;;;;;;;12.40;100.00;100205.88;106024;1254;60359;-75
2023/11/04 02:15:42;;;;;;;50.20;30.20;;;;;;;12.41;100.00;100214.95;106028;1254;59643;-77
2023/11/04 02:18:09;;;;;;;48.80;29.90;;;;;;;12.42;100.00;100221.34;106055;1254;65140;-77
2023/11/04 02:20:36;;;;;;;47.80;30.80;;;;;;;12.43;100.00;100221.45;106207;1253;72424;-78
2023/11/04 02:23:03;;;;;;;51.00;29.50;;;;;;;12.44;100.00;100220.48;106067;1254;60699;-76
2023/11/04 02:25:34;;;;;;;51.20;28.80;;;;;;;12.45;100.00;100228.85;106225;1250;60426;-80
2023/11/04 02:28:01;;;;;;;53.70;30.60;;;;;;;12.46;100.00;100236.66;106149;1251;73089;-77
2023/11/04 02:30:29;;;;;;;48.80;29.00;;;;;;;12.47;100.00;100229.23;106089;1253;63863;-78
2023/11/04 02:32:56;;;;;;;47.20;28.70;;;;;;;12.47;100.00;100223.61;106054;1254;72580;-77
2023/11/04 02:35:23;;;;;;;48.80;27.90;;;;;;;12.47;100.00;100226.21;105968;1255;61688;-78
2023/11/04 02:37:50;;;;;;;46.50;27.20;;;;;;;12.48;100.00;100233.90;105984;1254;59685;-78
2023/11/04 02:40:17;;;;;;;49.30;28.30;;;;;;;12.50;100.00;100233.59;106012;1254;73011;-77
2023/11/04 02:42:44;;;;;;;48.90;28.00;;;;;;;12.51;100.00;100231.73;105878;1254;63796;-77
2023/11/04 02:45:12;;;;;;;45.70;27.40;;;;;;;12.52;100.00;100235.52;106041;1253;72572;-78
2023/11/04 02:47:39;;;;;;;50.60;28.00;;;;;;;12.53;100.00;100236.69;106105;1253;61993;-78
2023/11/04 02:50:07;;;;;;;55.70;32.20;;;;;;;12.54;100.00;100240.27;106152;1252;60415;-77
2023/11/04 02:52:34;;;;;;;50.00;28.10;;;;;;;12.55;100.00;100239.99;106151;1254;73059;-77
2023/11/04 02:55:01;;;;;;;39.90;26.20;;;;;;;12.56;100.00;100242.39;106086;1263;63842;-77
2023/11/04 02:57:29;;;;;;;43.50;27.10;;;;;;;12.57;100.00;100240.21;106140;1253;72587;-77
2023/11/04 02:59:56;;;;;;;51.60;28.90;;;;;;;12.58;100.00;100237.01;106014;1255;61887;-77
2023/11/04 03:02:23;;;;;;;41.50;26.90;;;;;;;12.58;100.00;100236.13;106032;1251;60293;-78
2023/11/04 03:04:49;;;;;;;46.30;28.10;;;;;;;12.59;100.00;100238.17;105941;1251;72981;-76
2023/11/04 03:07:17;;;;;;;45.70;26.60;;;;;;;12.59;100.00;100242.38;105982;1254;62478;-76
2023/11/04 03:09:43;;;;;;;46.40;26.70;;;;;;;12.58;100.00;100242.92;106060;1254;72600;-77
2023/11/04 03:12:10;;;;;;;46.30;27.10;;;;;;;12.57;100.00;100235.30;106110;1254;60513;-77
2023/11/04 03:14:37;;;;;;;43.20;26.70;;;;;;;12.57;100.00;100230.20;106147;1253;60265;-77
2023/11/04 03:17:04;;;;;;;44.10;26.10;;;;;;;12.56;100.00;100225.20;106138;1249;73135;-78
2023/11/04 03:19:33;;;;;;;39.20;24.30;;;;;;;12.56;100.00;100219.09;106173;1254;63964;-78
2023/11/04 03:22:00;;;;;;;40.40;24.10;;;;;;;12.55;100.00;100213.71;106141;1253;72504;-77
2023/11/04 03:24:27;;;;;;;41.70;25.40;;;;;;;12.53;100.00;100210.66;106139;1254;62063;-78
2023/11/04 03:26:55;;;;;;;44.70;24.90;;;;;;;12.53;100.00;100198.45;106119;1261;60068;-80
2023/11/04 03:29:22;;;;;;;43.40;26.60;;;;;;;12.52;100.00;100190.26;106162;1254;73163;-79
2023/11/04 03:31:49;;;;;;;40.40;24.80;;;;;;;12.52;100.00;100181.67;106009;1257;64665;-76
2023/11/04 03:34:16;;;;;;;40.60;24.60;;;;;;;12.53;100.00;100176.88;106096;1253;72638;-78
2023/11/04 03:36:43;;;;;;;40.30;24.70;;;;;;;12.53;100.00;100181.42;106104;1252;61849;-78
2023/11/04 03:39:11;;;;;;;40.00;24.80;;;;;;;12.54;100.00;100182.62;106160;1249;59628;-78
2023/11/04 03:41:39;;;;;;;40.00;24.00;;;;;;;12.54;100.00;100181.00;106140;1251;73016;-78
2023/11/04 03:44:06;;;;;;;42.30;24.10;;;;;;;12.54;100.00;100185.02;106190;1253;63856;-75
2023/11/04 03:46:33;;;;;;;45.30;25.90;;;;;;;12.55;100.00;100193.91;106105;1254;72314;-79
2023/11/04 03:49:00;;;;;;;44.50;25.90;;;;;;;12.55;100.00;100195.83;106188;1254;60395;-79
2023/11/04 03:51:27;;;;;;;41.90;26.00;;;;;;;12.55;100.00;100197.55;106492;1254;60291;-76
2023/11/04 03:53:54;;;;;;;46.50;28.90;;;;;;;12.56;100.00;100196.46;107881;1251;71764;-76
2023/11/04 03:56:22;;;;;;;44.60;25.30;;;;;;;12.57;100.00;100190.10;106413;1253;64298;-77
2023/11/04 03:58:50;;;;;;;46.70;26.60;;;;;;;12.57;100.00;100190.92;106047;1251;71427;-78
2023/11/04 04:01:17;;;;;;;42.50;26.20;;;;;;;12.58;100.00;100186.84;106056;1253;60917;-76
2023/11/04 04:03:44;;;;;;;43.40;25.80;;;;;;;12.59;100.00;100189.07;106106;1251;60330;-77
2023/11/04 04:06:11;;;;;;;41.50;25.00;;;;;;;12.59;100.00;100183.21;106092;1253;71118;-78
2023/11/04 04:08:38;;;;;;;42.30;26.10;;;;;;;12.61;100.00;100176.84;106079;1254;63801;-77
2023/11/04 04:11:05;;;;;;;47.60;26.70;;;;;;;12.62;100.00;100171.29;106146;1253;72615;-78
2023/11/04 04:13:33;;;;;;;42.10;25.30;;;;;;;12.63;100.00;100175.08;106047;1253;61689;-76
2023/11/04 04:16:01;;;;;;;42.70;24.90;;;;;;;12.63;100.00;100173.48;106053;1254;60297;-78
2023/11/04 04:18:28;;;;;;;45.50;25.00;;;;;;;12.63;100.00;100174.52;106090;1254;72982;-79
2023/11/04 04:20:54;;;;;;;43.50;24.90;;;;;;;12.64;100.00;100168.86;105985;1251;63555;-80
2023/11/04 04:23:21;;;;;;;46.30;26.40;;;;;;;12.64;100.00;100171.82;106089;1251;72375;-75
2023/11/04 04:25:48;;;;;;;39.60;24.80;;;;;;;12.65;100.00;100177.71;106135;1253;62012;-78
2023/11/04 04:28:15;;;;;;;44.00;25.70;;;;;;;12.65;100.00;100183.80;106125;1249;60268;-78
2023/11/04 04:30:43;;;;;;;40.90;25.10;;;;;;;12.67;100.00;100190.55;106145;1250;73099;-80
2023/11/04 04:33:10;;;;;;;38.00;24.40;;;;;;;12.69;100.00;100192.34;106296;1254;63774;-78
2023/11/04 04:35:38;;;;;;;40.40;24.20;;;;;;;12.70;100.00;100191.54;106112;1253;71429;-79
2023/11/04 04:38:04;;;;;;;39.80;25.60;;;;;;;12.72;100.00;100185.09;106173;1254;61748;-81
2023/11/04 04:40:31;;;;;;;41.20;25.40;;;;;;;12.74;100.00;100187.05;106110;1254;59844;-76
2023/11/04 04:42:58;;;;;;;37.00;24.00;;;;;;;12.76;100.00;100190.74;106126;1254;71593;-79
2023/11/04 04:45:25;;;;;;;36.50;23.80;;;;;;;12.78;100.00;100196.41;106080;1254;62454;-78
2023/11/04 04:47:55;;;;;;;35.80;24.40;;;;;;;12.80;100.00;100201.13;105831;1257;72698;-77
2023/11/04 04:50:23;;;;;;;37.10;25.30;;;;;;;12.83;100.00;100196.35;106070;1253;61952;-77
2023/11/04 04:52:50;;;;;;;33.90;22.80;;;;;;;12.85;100.00;100199.01;106119;1253;59601;-76
2023/11/04 04:55:17;;;;;;;36.90;24.10;;;;;;;12.87;100.00;100199.92;106070;1253;73022;-77
2023/11/04 04:57:44;;;;;;;37.50;24.10;;;;;;;12.89;100.00;100199.04;106171;1253;63705;-75
2023/11/04 05:00:11;;;;;;;40.50;23.60;;;;;;;12.92;100.00;100199.52;106019;1251;72636;-80
2023/11/04 05:02:39;;;;;;;35.70;22.20;;;;;;;12.94;100.00;100205.33;106092;1252;61994;-77
2023/11/04 05:05:06;;;;;;;35.60;22.60;;;;;;;12.96;100.00;100209.21;106052;1251;60332;-77
2023/11/04 05:07:33;;;;;;;34.90;22.50;;;;;;;12.98;100.00;100202.71;106033;1254;73063;-79
2023/11/04 05:10:00;;;;;;;38.20;23.30;;;;;;;13.01;100.00;100196.55;106048;1253;64513;-77
2023/11/04 05:12:28;;;;;;;34.90;21.60;;;;;;;13.03;100.00;100189.34;106116;1253;71209;-79
2023/11/04 05:14:55;;;;;;;34.00;22.20;;;;;;;13.06;100.00;100186.48;106084;1254;59659;-78
2023/11/04 05:17:22;;;;;;;36.10;24.20;;;;;;;13.09;100.00;100189.27;106180;1254;60306;-77
2023/11/04 05:19:50;;;;;;;31.30;22.20;;;;;;;13.11;100.00;100187.34;106320;1250;71581;-80
2023/11/04 05:22:17;;;;;;;35.40;23.00;;;;;;;13.15;100.00;100189.32;106085;1254;63871;-78
2023/11/04 05:24:44;;;;;;;35.80;23.70;;;;;;;13.18;100.00;100191.58;106107;1254;71854;-78
2023/11/04 05:27:11;;;;;;;37.00;22.50;;;;;;;13.21;100.00;100196.05;106114;1253;61988;-76
2023/11/04 05:29:37;;;;;;;34.50;21.60;;;;;;;13.24;100.00;100195.14;106125;1251;60456;-77
2023/11/04 05:32:07;;;;;;;30.20;20.60;;;;;;;13.25;100.00;100189.05;106092;1253;73812;-77
2023/11/04 05:34:35;;;;;;;32.60;20.20;;;;;;;13.27;100.00;100198.05;106082;1252;62495;-78
2023/11/04 05:37:02;;;;;;;30.60;19.80;;;;;;;13.29;100.00;100209.48;105953;1251;72819;-77
2023/11/04 05:39:31;;;;;;;30.30;19.90;;;;;;;13.34;100.00;100224.27;106143;1254;61836;-77
2023/11/04 05:41:58;;;;;;;33.40;21.20;;;;;;;13.37;100.00;100232.92;106154;1251;60441;-81
2023/11/04 05:44:26;;;;;;;32.40;19.50;;;;;;;13.39;100.00;100240.34;106123;1251;72424;-81
2023/11/04 05:46:54;;;;;;;28.90;21.20;;;;;;;13.43;100.00;100253.52;106081;1254;65064;-77
2023/11/04 05:49:21;;;;;;;29.40;19.30;;;;;;;13.46;100.00;100261.92;106058;1252;72854;-80
2023/11/04 05:51:48;;;;;;;32.60;19.70;;;;;;;13.49;100.00;100258.50;106050;1254;64691;-78
2023/11/04 05:54:16;;;;;;;26.80;19.70;;;;;;;13.52;100.00;100262.17;106136;1254;60428;-77
2023/11/04 05:56:43;;;;;;;27.10;18.30;;;;;;;13.55;100.00;100264.39;106158;1251;72436;-78
2023/11/04 05:59:10;;;;;;;33.60;19.70;;;;;;;13.57;100.00;100267.42;106061;1253;61976;-77
2023/11/04 06:01:37;;;;;;;34.00;21.60;;;;;;;13.59;100.00;100270.21;106001;1251;72569;-78
2023/11/04 06:04:04;;;;;;;33.10;22.00;;;;;;;13.61;100.00;100271.85;106038;1254;62096;-79
2023/11/04 06:06:31;;;;;;;30.20;21.10;;;;;;;13.63;100.00;100275.89;106039;1253;60337;-78
2023/11/04 06:08:58;;;;;;;33.10;21.70;;;;;;;13.65;100.00;100273.97;106075;1252;73849;-79
2023/11/04 06:11:25;;;;;;;27.80;20.20;;;;;;;13.67;100.00;100275.70;106043;1253;63933;-80
2023/11/04 06:13:53;;;;;;;30.00;20.50;;;;;;;13.71;100.00;100268.60;105989;1251;71177;-79
2023/11/04 06:16:20;;;;;;;34.60;21.60;;;;;;;13.76;100.00;100263.84;106084;1252;60478;-79
2023/11/04 06:18:47;;;;;;;35.80;21.10;;;;;;;13.81;100.00;100259.48;106061;1251;60482;-76
2023/11/04 06:21:18;;;;;;;31.60;20.00;;;;;;;13.88;100.00;100264.09;106058;1251;73828;-78
2023/11/04 06:23:45;;;;;;;29.10;18.20;;;;;;;13.93;100.00;100259.13;106033;1254;62443;-77
2023/11/04 06:26:19;;;;;;;36.30;20.40;;;;;;;13.97;100.00;100259.69;105905;1251;72494;-77
2023/11/04 06:28:46;;;;;;;32.70;20.80;;;;;;;14.00;100.00;100255.01;105969;1254;60980;-75
2023/11/04 06:31:14;;;;;;;32.40;20.70;;;;;;;14.03;100.00;100250.77;106059;1249;60424;-77
2023/11/04 06:33:42;;;;;;;31.30;20.20;;;;;;;14.05;100.00;100250.91;106011;1249;73980;-80
2023/11/04 06:36:09;;;;;;;29.60;21.00;;;;;;;14.08;100.00;100251.23;106006;1253;64004;-77
2023/11/04 06:38:37;;;;;;;31.80;19.80;;;;;;;14.11;100.00;100248.90;106044;1251;72595;-75
2023/11/04 06:41:11;;;;;;;30.10;20.50;;;;;;;14.17;100.00;100249.59;106113;1254;60564;-77
2023/11/04 06:43:43;;;;;;;26.50;19.00;;;;;;;14.26;100.00;100243.92;106008;1252;60371;-80
2023/11/04 06:46:10;;;;;;;26.80;17.90;;;;;;;14.37;100.00;100241.86;106064;1254;73608;-80
2023/11/04 06:48:37;;;;;;;28.80;17.60;;;;;;;14.49;100.00;100244.92;106102;1254;62737;-78
2023/11/04 06:51:05;;;;;;;23.40;17.40;;;;;;;14.57;100.00;100245.16;105984;1253;70573;-79
2023/11/04 06:53:32;;;;;;;28.20;18.30;;;;;;;14.61;100.00;100247.66;106109;1253;61890;-78
2023/11/04 06:56:02;;;;;;;26.50;16.40;;;;;;;14.64;100.00;100250.69;106065;1251;60530;-77
2023/11/04 06:58:30;;;;;;;23.20;16.50;;;;;;;14.66;100.00;100256.54;106027;1251;73805;-80
2023/11/04 07:00:58;;;;;;;24.40;16.90;;;;;;;14.66;100.00;100260.40;106099;1251;63636;-78
2023/11/04 07:03:25;;;;;;;23.40;15.30;;;;;;;14.65;100.00;100251.88;106121;1251;72627;-81
2023/11/04 07:05:52;;;;;;;24.30;16.50;;;;;;;14.63;100.00;100251.54;106110;1251;62056;-80
2023/11/04 07:08:20;;;;;;;27.70;16.30;;;;;;;14.61;100.00;100249.76;106095;1254;60529;-77
2023/11/04 07:10:47;;;;;;;24.10;14.70;;;;;;;14.60;100.00;100245.40;106061;1254;73851;-81
2023/11/04 07:13:14;;;;;;;24.60;16.20;;;;;;;14.60;100.00;100244.38;106061;1253;62422;-77
2023/11/04 07:15:43;;;;;;;20.90;15.90;;;;;;;14.60;100.00;100241.73;106059;1253;72639;-78
2023/11/04 07:18:12;;;;;;;27.50;16.80;;;;;;;14.61;100.00;100246.39;106067;1251;61769;-78
2023/11/04 07:20:40;;;;;;;27.60;17.10;;;;;;;14.64;100.00;100246.54;106160;1251;60449;-77
2023/11/04 07:23:07;;;;;;;24.40;15.50;;;;;;;14.68;100.00;100245.83;106069;1254;75318;-77
2023/11/04 07:25:34;;;;;;;25.40;16.00;;;;;;;14.75;100.00;100244.04;106129;1253;62914;-77
2023/11/04 07:28:02;;;;;;;26.00;15.50;;;;;;;14.82;100.00;100245.53;106009;1254;72870;-76
2023/11/04 07:30:29;;;;;;;25.40;17.10;;;;;;;14.88;100.00;100247.33;106118;1252;62020;-77
2023/11/04 07:32:56;;;;;;;29.20;19.70;;;;;;;14.91;100.00;100256.71;106093;1254;60433;-81
2023/11/04 07:35:23;;;;;;;25.30;16.10;;;;;;;14.95;100.00;100246.38;106041;1253;72927;-78
2023/11/04 07:37:50;;;;;;;25.80;16.80;;;;;;;14.99;100.00;100241.86;106048;1254;63925;-76
2023/11/04 07:40:17;;;;;;;22.80;16.90;;;;;;;15.05;100.00;100236.23;106063;1252;71195;-76
2023/11/04 07:42:44;;;;;;;22.40;16.70;;;;;;;15.15;100.00;100225.71;106034;1249;60468;-78
2023/11/04 07:45:11;;;;;;;26.20;16.90;;;;;;;15.24;100.00;100221.88;106057;1250;60443;-78
2023/11/04 07:47:42;;;;;;;27.00;18.10;;;;;;;15.33;100.00;100223.58;106125;1253;73957;-77
2023/11/04 07:50:13;;;;;;;24.40;16.90;;;;;;;15.43;100.00;100224.15;106084;1254;63608;-78
2023/11/04 07:52:42;;;;;;;21.10;15.20;;;;;;;15.54;100.00;100226.86;106088;1253;71738;-79
2023/11/04 07:55:25;;;;;;;22.00;14.40;;;;;;;15.69;100.00;100230.16;106111;1253;62018;-78
2023/11/04 07:57:53;;;;;;;18.40;14.30;;;;;;;15.78;100.00;100232.39;106100;1251;60459;-76
2023/11/04 08:00:20;;;;;;;18.60;13.70;;;;;;;15.86;100.00;100226.77;106059;1253;72533;-77
2023/11/04 08:02:49;;;;;;;20.60;14.10;;;;;;;15.89;100.00;100223.65;106055;1254;63750;-78
2023/11/04 08:05:17;;;;;;;23.00;14.50;;;;;;;15.86;100.00;100224.12;106047;1252;72648;-80
2023/11/04 08:07:44;;;;;;;21.20;15.80;;;;;;;15.79;100.00;100217.39;106094;1254;62089;-78
2023/11/04 08:10:12;;;;;;;19.90;14.10;;;;;;;15.71;100.00;100216.95;106073;1253;60436;-80
2023/11/04 08:12:38;;;;;;;22.40;16.20;;;;;;;15.66;100.00;100215.97;106060;1249;73846;-78
2023/11/04 08:15:05;;;;;;;17.80;13.80;;;;;;;15.64;100.00;100216.54;106036;1254;62494;-80
2023/11/04 08:17:33;;;;;;;21.00;14.50;;;;;;;15.66;100.00;100214.77;106135;1251;72646;-79
2023/11/04 08:20:08;;;;;;;25.30;15.30;;;;;;;15.69;100.00;100216.78;106066;1254;60867;-77
2023/11/04 08:22:38;;;;;;;23.40;15.90;;;;;;;15.71;100.00;100210.43;106064;1249;60441;-79
2023/11/04 08:25:07;;;;;;;20.00;15.20;;;;;;;15.75;100.00;100204.48;106031;1250;73710;-77
2023/11/04 08:27:34;;;;;;;20.50;14.80;;;;;;;15.79;100.00;100198.45;105984;1253;63526;-76
2023/11/04 08:30:03;;;;;;;24.50;14.60;;;;;;;15.83;100.00;100191.45;106021;1251;72617;-77
2023/11/04 08:32:31;;;;;;;21.40;14.80;;;;;;;15.85;100.00;100183.31;106021;1252;61966;-82
2023/11/04 08:34:58;;;;;;;20.80;13.90;;;;;;;15.88;100.00;100178.33;106031;1253;60450;-79
2023/11/04 08:37:26;;;;;;;18.60;13.50;;;;;;;15.90;100.00;100173.85;106076;1253;73847;-79
2023/11/04 08:39:56;;;;;;;23.30;14.10;;;;;;;15.92;100.00;100175.64;106121;1254;63752;-75
2023/11/04 08:42:23;;;;;;;18.80;14.30;;;;;;;15.93;100.00;100174.10;106062;1250;73908;-76
2023/11/04 08:44:51;;;;;;;15.60;11.60;;;;;;;15.93;100.00;100169.67;106119;1253;60982;-76
2023/11/04 08:47:18;;;;;;;17.50;13.20;;;;;;;15.93;100.00;100164.94;106047;1251;60447;-79
2023/11/04 08:49:45;;;;;;;16.40;13.70;;;;;;;15.92;100.00;100161.02;106065;1251;72316;-81
2023/11/04 08:52:12;;;;;;;22.30;13.20;;;;;;;15.88;100.00;100158.20;106058;1249;64035;-79
2023/11/04 08:54:40;;;;;;;23.00;13.70;;;;;;;15.84;100.00;100158.34;106111;1251;72705;-77
2023/11/04 08:57:07;;;;;;;17.40;12.00;;;;;;;15.82;100.00;100162.29;106084;1250;61955;-78
2023/11/04 08:59:35;;;;;;;23.70;13.20;;;;;;;15.80;100.00;100163.14;106069;1251;60404;-77
2023/11/04 09:02:02;;;;;;;19.60;13.20;;;;;;;15.76;100.00;100162.42;106094;1254;74081;-79
2023/11/04 09:04:30;;;;;;;18.80;13.60;;;;;;;15.75;100.00;100163.95;106074;1253;63653;-77
2023/11/04 09:06:57;;;;;;;19.30;12.50;;;;;;;15.77;100.00;100163.02;105963;1250;72463;-78
2023/11/04 09:09:26;;;;;;;20.50;14.00;;;;;;;15.88;100.00;100161.90;106136;1249;60715;-77
2023/11/04 09:11:55;;;;;;;21.50;12.80;;;;;;;16.11;100.00;100155.23;106135;1251;60520;-77
2023/11/04 09:14:23;;;;;;;16.00;11.90;;;;;;;16.48;100.00;100147.64;106103;1251;73787;-79
2023/11/04 09:16:50;;;;;;;15.90;10.70;;;;;;;16.90;100.00;100150.08;106240;1250;63719;-76
2023/11/04 09:19:17;;;;;;;13.80;11.50;;;;;;;17.28;100.00;100148.11;107287;1251;72688;-76
2023/11/04 09:21:45;;;;;;;18.30;9.50;;;;;;;17.74;100.00;100147.94;106441;1250;61202;-77
2023/11/04 09:24:12;;;;;;;14.50;8.60;;;;;;;18.12;100.00;100148.66;106103;1253;60338;-77
2023/11/04 09:26:39;;;;;;;19.00;10.00;;;;;;;18.38;100.00;100138.91;106067;1251;73855;-78
2023/11/04 09:29:07;;;;;;;11.10;8.40;;;;;;;18.62;100.00;100136.13;106107;1253;63818;-77
2023/11/04 09:31:39;;;;;;;11.60;7.70;;;;;;;18.77;100.00;100138.20;106076;1253;70254;-77
2023/11/04 09:34:08;;;;;;;12.70;8.00;;;;;;;18.72;100.00;100140.13;106042;1253;60634;-77
2023/11/04 09:36:38;;;;;;;12.50;9.00;;;;;;;18.58;100.00;100134.06;106030;1254;60437;-78
2023/11/04 09:39:07;;;;;;;11.60;7.70;;;;;;;18.52;100.00;100124.21;106048;1251;72422;-77
2023/11/04 09:41:33;;;;;;;14.70;8.50;;;;;;;18.48;100.00;100123.81;106184;1253;63819;-76
2023/11/04 09:44:04;;;;;;;10.10;7.60;;;;;;;18.42;100.00;100123.77;106323;1251;72485;-76
2023/11/04 09:46:31;;;;;;;10.80;7.10;;;;;;;18.34;100.00;100121.42;106118;1254;61865;-77
2023/11/04 09:48:59;;;;;;;11.70;7.70;;;;;;;18.22;100.00;100116.45;106189;1251;60443;-78
2023/11/04 09:51:26;;;;;;;12.90;8.20;;;;;;;18.12;100.00;100111.09;106169;1253;72029;-78
2023/11/04 09:53:55;;;;;;;10.80;7.30;;;;;;;18.08;100.00;100100.23;106133;1253;63327;-79
2023/11/04 09:56:22;;;;;;;9.20;6.50;;;;;;;18.01;100.00;100098.18;106126;1251;72692;-77
2023/11/04 09:58:50;;;;;;;13.10;7.80;;;;;;;17.95;100.00;100102.73;106144;1254;60462;-79
2023/11/04 10:01:20;;;;;;;7.50;6.30;;;;;;;17.85;100.00;100101.38;106099;1251;60444;-77
2023/11/04 10:03:47;;;;;;;10.10;6.60;;;;;;;17.77;100.00;100098.20;106022;1251;73593;-77
2023/11/04 10:06:15;;;;;;;9.40;5.60;;;;;;;17.75;100.00;100100.37;106108;1251;64407;-77
2023/11/04 10:08:43;;;;;;;9.90;6.80;;;;;;;17.87;100.00;100101.04;106036;1253;72648;-76
2023/11/04 10:11:10;;;;;;;7.80;6.00;;;;;;;18.16;100.00;100098.80;105883;1254;61879;-77
2023/11/04 10:13:37;;;;;;;8.30;5.60;;;;;;;18.52;100.00;100097.85;105972;1253;60536;-77
2023/11/04 10:16:05;;;;;;;9.70;5.60;;;;;;;18.82;100.00;100093.89;106036;1253;73577;-77
2023/11/04 10:18:34;;;;;;;9.60;4.90;;;;;;;19.04;100.00;100097.16;106025;1254;63829;-73
2023/11/04 10:21:02;;;;;;;6.50;4.40;;;;;;;19.21;100.00;100083.00;106050;1251;72065;-77
2023/11/04 10:23:30;;;;;;;8.60;4.40;;;;;;;19.45;100.00;100077.70;105905;1249;60536;-77
2023/11/04 10:26:03;;;;;;;10.30;4.70;;;;;;;19.80;100.00;100071.20;106048;1252;60402;-78
2023/11/04 10:28:30;;;;;;;7.30;4.00;;;;;;;20.21;100.00;100069.46;106051;1251;73934;-76
2023/11/04 10:31:02;;;;;;;11.40;5.70;;;;;;;20.41;100.00;100070.97;105972;1254;63494;-79
2023/11/04 10:33:35;;;;;;;7.30;3.80;;;;;;;20.39;100.00;100066.02;106090;1251;72427;-77
2023/11/04 10:36:04;;;;;;;7.80;3.70;;;;;;;20.29;100.00;100066.09;106003;1249;63033;-77
2023/11/04 10:38:34;;;;;;;9.10;4.50;;;;;;;20.20;100.00;100067.81;106072;1251;60351;-77
2023/11/04 10:41:02;;;;;;;8.60;4.80;;;;;;;20.13;100.00;100068.17;106089;1254;74731;-77
2023/11/04 10:43:34;;;;;;;11.10;4.60;;;;;;;20.01;100.00;100069.65;106134;1253;62704;-76
2023/11/04 10:46:07;;;;;;;6.00;4.40;;;;;;;19.87;100.00;100068.52;106092;1252;74369;-76
2023/11/04 10:48:39;;;;;;;6.30;4.20;;;;;;;19.74;100.00;100066.71;106019;1253;61962;-77
2023/11/04 10:51:17;;;;;;;9.40;4.80;;;;;;;19.60;100.00;100068.17;106051;1251;60459;-77
2023/11/04 10:54:10;;;;;;;8.70;4.30;;;;;;;19.43;100.00;100063.13;106056;1251;73266;-78
2023/11/04 10:56:48;;;;;;;8.60;4.80;;;;;;;19.28;100.00;100051.91;105998;1253;63510;-76
2023/11/04 10:59:25;;;;;;;10.20;5.00;;;;;;;19.25;100.00;100054.86;106053;1252;71854;-77
2023/11/04 11:01:52;;;;;;;9.80;4.90;;;;;;;19.30;100.00;100054.23;106082;1251;61804;-76